Date,TemperatureHighF,TemperatureAvgF,TemperatureLowF,DewpointHighF,DewpointAvgF,DewpointLowF,HumidityHigh,HumidityAvg,HumidityLow,PressureMaxIn,PressureMinIn,WindSpeedMaxMPH,WindSpeedAvgMPH,GustSpeedMaxMPH,PrecipitationSumIn
2013-9-1,82.8,72.6,61.1,60.8,57.1,54.8,81,60,43,29.89,29.76,12,4,27,0.00
2013-9-2,81.4,72.8,63.6,58.6,56.5,53.6,70,57,44,29.90,29.82,11,5,26,0.00
2013-9-3,77.9,70.5,65.2,60.3,56.9,55.0,72,62,48,29.99,29.90,11,4,31,0.00
2013-9-4,72.8,67.5,61.6,59.0,56.9,51.9,76,69,60,30.01,29.94,15,6,36,0.00
2013-9-5,69.9,64.8,58.4,59.1,57.7,54.3,89,78,68,30.03,29.89,12,6,31,0.13
2013-9-6,67.4,61.0,56.9,59.1,56.4,54.0,96,85,72,30.16,30.02,10,2,20,0.45
2013-9-7,82.7,64.7,50.1,60.8,55.0,48.7,97,74,40,30.15,29.98,3,0,10,0.00
2013-9-8,86.9,70.3,54.2,62.3,57.4,51.8,94,67,31,30.12,29.96,7,1,16,0.00
2013-9-9,83.8,71.1,55.3,64.8,59.1,52.0,91,68,43,30.02,29.87,8,2,19,0.00
2013-9-10,92.7,72.9,57.2,64.1,56.9,48.0,94,63,23,29.99,29.86,7,1,15,0.00
2013-9-11,95.9,73.7,57.4,63.2,56.0,51.7,85,58,23,30.01,29.89,5,1,12,0.00
2013-9-12,91.0,73.0,56.6,63.5,58.7,52.5,87,63,36,30.00,29.83,11,2,25,0.00
2013-9-13,80.1,72.8,68.0,62.9,61.6,59.4,78,69,55,29.90,29.76,12,6,29,0.00
2013-9-14,92.8,72.6,56.3,65.7,59.6,54.0,93,67,33,29.86,29.68,7,1,21,0.00
2013-9-15,72.0,65.7,62.0,63.4,59.1,56.0,89,79,69,29.87,29.69,17,5,37,0.00
2013-9-16,69.3,62.7,59.3,57.9,54.8,53.2,83,76,63,29.98,29.87,11,5,24,0.00
2013-9-17,67.3,59.9,54.7,54.5,50.9,46.3,90,73,48,29.98,29.85,11,5,30,0.00
2013-9-18,71.6,59.3,48.5,50.9,48.2,43.6,84,68,42,30.10,29.98,9,4,21,0.00
2013-9-19,80.0,58.2,40.5,50.1,44.0,38.7,94,65,27,30.10,29.85,6,2,14,0.00
2013-9-20,79.0,58.9,43.5,54.3,47.0,40.5,93,68,29,29.85,29.65,11,3,25,0.06
2013-9-21,68.2,58.8,52.2,60.5,52.9,50.2,94,82,57,29.78,29.70,11,3,28,0.01
2013-9-22,59.4,55.3,51.7,55.1,51.5,48.8,95,87,72,29.86,29.72,7,2,17,0.28
2013-9-23,60.1,55.5,51.3,56.7,51.9,49.3,95,88,76,30.02,29.86,5,2,17,0.05
2013-9-24,59.1,52.9,49.6,51.4,48.1,44.7,93,84,67,30.01,29.88,8,3,18,0.00
2013-9-25,59.5,52.6,49.2,50.1,46.6,44.7,89,80,64,30.02,29.87,10,4,22,0.02
2013-9-26,63.6,54.2,47.4,48.5,45.8,44.0,89,74,53,30.18,30.02,8,3,21,0.00
2013-9-27,58.7,53.2,50.1,51.0,48.4,45.1,96,84,66,30.18,29.97,9,4,20,0.28
2013-9-28,61.8,54.2,47.7,60.4,53.0,46.8,97,96,89,29.97,29.51,10,1,30,1.85
2013-9-29,54.4,50.2,45.2,52.4,49.1,44.4,98,96,84,29.73,29.42,12,1,31,1.20
2013-9-30,58.4,50.3,47.0,57.3,47.4,42.6,96,90,75,30.03,29.59,8,2,26,0.63